Time;durP1;ratioP1;P1;durP2;ratioP2;P2;SDS_P1;SDS_P2;PMS_P1;PMS_P2;Temp;Humidity;BMP_temperature;BMP_pressure;BME280_temperature;BME280_humidity;BME280_pressure;Samples;Min_cycle;Max_cycle;Signal;HPM_P1;HPM_P2
2023/01/13 00:02:16;;;;;;;482.80;459.30;;;10.60;99.90;;;;;;5005151;28;20465;-83
2023/01/13 00:04:43;;;;;;;479.43;456.83;;;10.60;99.90;;;;;;5005486;28;20443;-83
2023/01/13 00:07:10;;;;;;;446.43;426.50;;;10.50;99.90;;;;;;5004953;28;20476;-83
2023/01/13 00:09:37;;;;;;;390.03;374.10;;;10.50;99.90;;;;;;5003975;28;20474;-84
2023/01/13 00:12:04;;;;;;;342.97;329.53;;;10.50;99.90;;;;;;5003944;28;20450;-83
2023/01/13 00:14:34;;;;;;;347.57;334.23;;;10.50;99.90;;;;;;5003533;28;20481;-85
2023/01/13 00:17:01;;;;;;;349.57;336.20;;;10.30;99.90;;;;;;5003462;28;20465;-83
2023/01/13 00:19:28;;;;;;;290.13;279.43;;;10.30;99.90;;;;;;5003882;28;20450;-83
2023/01/13 00:21:55;;;;;;;238.83;230.47;;;10.30;99.90;;;;;;5004088;28;20516;-82
2023/01/13 00:24:22;;;;;;;175.70;169.53;;;10.30;99.90;;;;;;5003497;28;20457;-83
2023/01/13 00:26:49;;;;;;;168.93;163.30;;;10.30;99.90;;;;;;5003245;28;20450;-83
2023/01/13 00:29:15;;;;;;;148.57;143.53;;;10.30;99.90;;;;;;5004182;28;20462;-84
2023/01/13 00:31:43;;;;;;;121.17;116.97;;;10.30;99.90;;;;;;5003340;28;20482;-83
2023/01/13 00:34:10;;;;;;;44.83;43.13;;;10.30;99.90;;;;;;5003297;28;20465;-83
2023/01/13 00:36:37;;;;;;;77.23;74.53;;;10.30;99.90;;;;;;5002811;28;20464;-83
2023/01/13 00:39:04;;;;;;;77.23;74.40;;;10.30;99.90;;;;;;5002928;28;20485;-83
2023/01/13 00:43:21;;;;;;;37.80;36.30;;;10.30;99.90;;;;;;5002214;28;20492;-83
2023/01/13 00:44:17;;;;;;;40.67;38.97;;;10.30;99.90;;;;;;5002291;28;20485;-85
2023/01/13 00:46:45;;;;;;;40.93;39.30;;;10.30;99.90;;;;;;5001916;28;20457;-83
2023/01/13 00:49:12;;;;;;;45.27;43.57;;;10.20;99.90;;;;;;5001700;28;20604;-85
2023/01/13 00:51:39;;;;;;;37.30;35.90;;;10.20;99.90;;;;;;5001796;28;20470;-83
2023/01/13 00:54:06;;;;;;;28.40;27.23;;;10.20;99.90;;;;;;5000933;28;20461;-83
2023/01/13 00:56:33;;;;;;;38.50;37.00;;;10.20;99.90;;;;;;5001458;28;20992;-82
2023/01/13 00:59:01;;;;;;;41.60;40.10;;;10.20;99.90;;;;;;5001457;28;20456;-82
2023/01/13 01:01:28;;;;;;;40.13;38.63;;;10.20;99.90;;;;;;5001147;28;20525;-83
2023/01/13 01:03:56;;;;;;;33.73;32.33;;;10.20;99.90;;;;;;5001336;28;20631;-82
2023/01/13 01:06:24;;;;;;;28.43;27.33;;;10.20;99.90;;;;;;5001831;28;20629;-82
2023/01/13 01:08:52;;;;;;;40.60;39.10;;;10.20;99.90;;;;;;5001951;28;20459;-83
2023/01/13 01:11:21;;;;;;;46.10;44.33;;;10.20;99.90;;;;;;5001266;28;20561;-82
2023/01/13 01:13:50;;;;;;;47.33;45.53;;;10.20;99.90;;;;;;5000839;28;20465;-82
2023/01/13 01:16:20;;;;;;;37.90;36.50;;;10.20;99.90;;;;;;5001290;28;20457;-83
2023/01/13 01:18:48;;;;;;;36.73;35.33;;;10.20;99.90;;;;;;5001423;28;20468;-83
2023/01/13 01:21:17;;;;;;;24.57;23.47;;;10.20;99.90;;;;;;5000887;28;20482;-83
2023/01/13 01:23:44;;;;;;;23.60;22.50;;;10.20;99.90;;;;;;5001274;28;20458;-82
2023/01/13 01:26:13;;;;;;;20.93;19.93;;;10.30;99.90;;;;;;5000802;28;20529;-82
2023/01/13 01:28:40;;;;;;;8.33;7.83;;;10.40;99.90;;;;;;5000814;28;20480;-82
2023/01/13 01:31:08;;;;;;;14.03;13.23;;;10.40;99.90;;;;;;5001816;28;20488;-83
2023/01/13 01:33:35;;;;;;;10.23;5.60;;;10.40;99.90;;;;;;5004993;28;20482;-82
2023/01/13 01:36:02;;;;;;;5.13;3.43;;;10.20;99.90;;;;;;5004988;28;20446;-81
2023/01/13 01:38:31;;;;;;;7.60;1.50;;;9.70;99.90;;;;;;5005629;28;20994;-83
2023/01/13 01:40:58;;;;;;;5.37;1.83;;;9.50;99.90;;;;;;5005715;28;20524;-83
2023/01/13 01:44:01;;;;;;;5.20;1.40;;;9.40;99.90;;;;;;5006155;28;20458;-83
2023/01/13 01:46:30;;;;;;;4.70;1.00;;;9.40;99.90;;;;;;5005067;28;20495;-82
2023/01/13 01:49:10;;;;;;;5.43;1.17;;;9.30;99.90;;;;;;5005709;28;20454;-82
2023/01/13 01:51:42;;;;;;;4.83;1.27;;;9.30;99.90;;;;;;5004891;28;20485;-84
2023/01/13 01:54:14;;;;;;;4.87;1.00;;;9.10;99.90;;;;;;5005093;28;20438;-82
2023/01/13 01:56:43;;;;;;;4.07;1.10;;;9.10;99.90;;;;;;5006028;28;20438;-82
2023/01/13 01:59:10;;;;;;;4.80;1.00;;;9.00;99.90;;;;;;5005121;28;20481;-83
2023/01/13 02:01:38;;;;;;;5.23;1.07;;;8.90;99.90;;;;;;5004552;28;20505;-83
2023/01/13 02:04:11;;;;;;;5.07;1.20;;;8.80;99.90;;;;;;5005516;28;20457;-82
2023/01/13 02:06:38;;;;;;;4.60;0.90;;;8.80;99.90;;;;;;5005566;28;20457;-82
2023/01/13 02:09:05;;;;;;;6.20;1.50;;;8.60;99.90;;;;;;5005055;28;20450;-83
2023/01/13 02:14:21;;;;;;;3.30;1.20;;;8.40;99.90;;;;;;5004334;28;20479;-83
2023/01/13 02:16:58;;;;;;;5.37;1.77;;;8.40;99.90;;;;;;5004644;28;20461;-83
2023/01/13 02:19:56;;;;;;;6.10;1.37;;;8.30;99.90;;;;;;5005191;28;20438;-82
2023/01/13 02:22:39;;;;;;;3.87;1.40;;;8.40;99.90;;;;;;5004601;28;20446;-83
2023/01/13 02:25:20;;;;;;;6.13;1.40;;;8.30;99.90;;;;;;5005022;28;20435;-83
2023/01/13 02:28:20;;;;;;;3.60;1.37;;;8.20;99.90;;;;;;5004615;28;20504;-83
2023/01/13 02:33:53;;;;;;;5.00;1.83;;;8.30;99.90;;;;;;5004579;28;20461;-83
2023/01/13 02:36:30;;;;;;;4.57;2.07;;;8.20;99.90;;;;;;5004701;28;20458;-84
2023/01/13 02:39:04;;;;;;;3.97;2.27;;;8.00;99.90;;;;;;5005220;28;20615;-83
2023/01/13 02:44:28;;;;;;;4.20;2.20;;;7.90;99.90;;;;;;5003556;28;20493;-83
2023/01/13 02:47:01;;;;;;;8.77;2.00;;;7.90;99.90;;;;;;5004073;28;20434;-84
2023/01/13 02:49:33;;;;;;;5.33;2.27;;;7.70;99.90;;;;;;5005203;28;20546;-82
2023/01/13 02:52:07;;;;;;;5.70;2.47;;;7.70;99.90;;;;;;5004328;28;20470;-83
2023/01/13 02:54:37;;;;;;;8.50;3.03;;;7.70;99.90;;;;;;5004094;28;20445;-83
2023/01/13 02:57:08;;;;;;;6.23;4.00;;;7.60;99.90;;;;;;5003950;28;20446;-83
2023/01/13 02:59:36;;;;;;;5.43;2.90;;;7.60;99.90;;;;;;5003946;28;20964;-82
2023/01/13 03:02:07;;;;;;;6.80;2.30;;;7.80;99.90;;;;;;5004511;28;21038;-84
2023/01/13 03:04:48;;;;;;;6.07;2.67;;;7.70;99.90;;;;;;5003893;28;20439;-82
2023/01/13 03:07:38;;;;;;;7.33;3.10;;;7.70;99.90;;;;;;5003211;28;20458;-82
2023/01/13 03:10:11;;;;;;;6.53;3.20;;;7.60;99.90;;;;;;4994445;28;20477;-83
2023/01/13 03:12:50;;;;;;;8.73;3.50;;;7.70;99.90;;;;;;5003498;28;20452;-83
2023/01/13 03:15:24;;;;;;;4.23;3.50;;;7.70;99.90;;;;;;5003615;28;20438;-80
2023/01/13 03:18:01;;;;;;;12.00;4.10;;;7.60;99.90;;;;;;5004127;28;20522;-82
2023/01/13 03:20:34;;;;;;;9.50;4.00;;;7.60;99.90;;;;;;5003845;28;20474;-84
2023/01/13 03:23:07;;;;;;;6.73;4.73;;;7.70;99.90;;;;;;5003612;28;20464;-81
2023/01/13 03:25:40;;;;;;;7.23;4.90;;;7.50;99.90;;;;;;5003169;28;20449;-82
2023/01/13 03:28:15;;;;;;;8.10;4.67;;;7.50;99.90;;;;;;5003305;28;20462;-82
2023/01/13 03:30:47;;;;;;;7.37;4.10;;;7.50;99.90;;;;;;5003239;28;20856;-81
2023/01/13 03:33:17;;;;;;;10.33;5.00;;;7.60;99.90;;;;;;5002831;28;20454;-82
2023/01/13 03:35:49;;;;;;;9.37;6.20;;;7.50;99.90;;;;;;5003093;28;20449;-85
2023/01/13 03:38:18;;;;;;;7.83;7.13;;;7.40;99.90;;;;;;5003437;28;20465;-82
2023/01/13 03:40:49;;;;;;;7.53;6.83;;;7.30;99.90;;;;;;5002387;28;20478;-83
2023/01/13 03:46:09;;;;;;;21.33;9.57;;;7.40;99.90;;;;;;5002346;28;20445;-82
2023/01/13 03:48:40;;;;;;;8.40;7.17;;;7.40;99.90;;;;;;5002932;28;20449;-82
2023/01/13 03:51:11;;;;;;;11.23;9.90;;;7.50;99.90;;;;;;5003430;28;20470;-81
2023/01/13 03:53:42;;;;;;;8.20;7.50;;;7.40;99.90;;;;;;5002396;28;20485;-81
2023/01/13 03:56:16;;;;;;;10.80;9.83;;;7.50;99.90;;;;;;5002432;28;20453;-83
2023/01/13 03:58:45;;;;;;;12.17;7.27;;;7.60;99.90;;;;;;5002244;28;20458;-82
2023/01/13 04:01:16;;;;;;;12.40;7.30;;;7.50;99.90;;;;;;5001769;28;20549;-82
2023/01/13 04:03:51;;;;;;;9.43;8.63;;;7.50;99.90;;;;;;5002197;28;20484;-82
2023/01/13 04:06:25;;;;;;;14.80;13.40;;;7.40;99.90;;;;;;5002926;28;20488;-82
2023/01/13 04:08:57;;;;;;;19.43;17.50;;;7.30;99.90;;;;;;5002478;28;20437;-83
2023/01/13 04:11:29;;;;;;;25.40;23.20;;;7.20;99.90;;;;;;5001965;28;20481;-85
2023/01/13 04:13:58;;;;;;;24.40;22.57;;;7.20;99.90;;;;;;5002522;28;20518;-85
2023/01/13 04:16:25;;;;;;;25.20;23.87;;;7.30;99.90;;;;;;5002464;28;20481;-82
2023/01/13 04:18:53;;;;;;;28.87;26.47;;;7.20;99.90;;;;;;5002160;28;20465;-81
2023/01/13 04:21:20;;;;;;;28.20;26.90;;;7.10;99.90;;;;;;5001934;28;20486;-82
2023/01/13 04:23:50;;;;;;;29.30;27.43;;;7.10;99.90;;;;;;5001913;28;20454;-82
2023/01/13 04:26:17;;;;;;;26.47;24.97;;;7.20;99.90;;;;;;5000676;28;20949;-82
2023/01/13 04:28:43;;;;;;;24.13;22.93;;;7.20;99.90;;;;;;5001208;28;20454;-82
2023/01/13 04:31:10;;;;;;;23.93;22.30;;;7.20;99.90;;;;;;5001042;28;20482;-81
2023/01/13 04:33:37;;;;;;;23.47;21.87;;;7.20;99.90;;;;;;5001205;28;20959;-82
2023/01/13 04:36:05;;;;;;;22.40;20.97;;;7.10;99.90;;;;;;5001390;28;20468;-81
2023/01/13 04:38:32;;;;;;;22.37;21.07;;;7.20;99.90;;;;;;5000476;28;20454;-81
2023/01/13 04:40:59;;;;;;;27.93;25.30;;;7.10;99.90;;;;;;5001285;28;21008;-84
2023/01/13 04:43:26;;;;;;;26.50;24.53;;;7.20;99.90;;;;;;5000450;28;20462;-82
2023/01/13 04:45:52;;;;;;;24.70;22.90;;;7.20;99.90;;;;;;5000572;28;20456;-81
2023/01/13 04:48:19;;;;;;;16.07;13.97;;;7.30;99.90;;;;;;5000778;28;20521;-84
2023/01/13 04:50:46;;;;;;;16.83;15.33;;;7.50;99.90;;;;;;5000410;28;20627;-82
2023/01/13 04:53:14;;;;;;;16.00;12.90;;;7.60;99.90;;;;;;5001155;28;20815;-81
2023/01/13 04:55:41;;;;;;;15.17;11.83;;;7.70;99.90;;;;;;5000246;28;20450;-81
2023/01/13 04:58:10;;;;;;;11.10;8.33;;;7.70;99.90;;;;;;5000786;28;20454;-81
2023/01/13 05:00:37;;;;;;;9.23;6.57;;;7.80;99.90;;;;;;5001089;28;20477;-81
2023/01/13 05:03:05;;;;;;;12.67;4.13;;;7.90;99.90;;;;;;5001751;28;20461;-85
2023/01/13 05:05:32;;;;;;;9.17;4.00;;;7.90;99.90;;;;;;5000822;28;20716;-82
2023/01/13 05:07:59;;;;;;;12.23;3.83;;;7.90;99.90;;;;;;5005695;28;20450;-83
2023/01/13 05:10:27;;;;;;;32.83;4.67;;;7.90;99.90;;;;;;5004614;28;20474;-82
2023/01/13 05:18:24;;;;;;;9.73;4.57;;;7.80;99.90;;;;;;5005168;28;20488;-82
2023/01/13 05:20:51;;;;;;;4.87;2.70;;;7.70;99.90;;;;;;5004649;28;20470;-82
2023/01/13 05:26:04;;;;;;;15.33;3.80;;;7.60;99.90;;;;;;5004702;28;20526;-82
2023/01/13 05:28:34;;;;;;;15.10;4.03;;;7.50;99.90;;;;;;5004469;28;20458;-82
2023/01/13 05:31:01;;;;;;;12.50;4.23;;;7.60;99.90;;;;;;5004667;28;21038;-82
2023/01/13 05:33:28;;;;;;;12.77;5.50;;;7.70;99.90;;;;;;5005386;28;20801;-82
2023/01/13 05:35:54;;;;;;;5.03;2.60;;;7.70;99.90;;;;;;5004297;28;20458;-82
2023/01/13 05:38:39;;;;;;;14.40;3.37;;;7.80;99.90;;;;;;5004439;28;20457;-83
2023/01/13 05:44:01;;;;;;;16.33;2.60;;;7.70;99.90;;;;;;5004145;28;20449;-82
2023/01/13 05:46:31;;;;;;;6.50;2.10;;;7.70;99.90;;;;;;5004057;28;20527;-82
2023/01/13 05:48:58;;;;;;;10.50;2.90;;;7.60;99.90;;;;;;5003789;28;20834;-82
2023/01/13 05:51:25;;;;;;;15.17;3.10;;;7.60;99.90;;;;;;5004607;28;20481;-82
2023/01/13 05:53:52;;;;;;;14.10;2.50;;;7.50;99.90;;;;;;5004619;28;20450;-83
2023/01/13 05:56:24;;;;;;;6.00;2.23;;;7.60;99.90;;;;;;5004305;28;20464;-82
2023/01/13 05:58:55;;;;;;;8.07;2.60;;;7.50;99.90;;;;;;5004317;28;20537;-83
2023/01/13 06:01:31;;;;;;;7.00;2.27;;;7.60;99.90;;;;;;5003837;28;20486;-82
2023/01/13 06:03:57;;;;;;;6.47;2.60;;;7.50;99.90;;;;;;5004330;28;20449;-82
2023/01/13 06:06:29;;;;;;;5.50;2.93;;;7.50;99.90;;;;;;5003793;28;20457;-83
2023/01/13 06:08:56;;;;;;;7.97;2.27;;;7.70;99.90;;;;;;5003824;28;20457;-84
2023/01/13 06:11:24;;;;;;;13.00;2.40;;;7.60;99.90;;;;;;5003896;28;20474;-82
2023/01/13 06:13:51;;;;;;;5.63;2.30;;;7.70;99.90;;;;;;5003644;28;20530;-82
2023/01/13 06:16:18;;;;;;;4.93;1.87;;;7.90;99.90;;;;;;5003614;28;20518;-82
2023/01/13 06:18:44;;;;;;;8.80;2.10;;;8.00;99.90;;;;;;5003853;28;20534;-82
2023/01/13 06:21:17;;;;;;;6.50;1.67;;;8.00;99.90;;;;;;5003469;28;20478;-83
2023/01/13 06:23:44;;;;;;;6.30;1.90;;;7.90;99.90;;;;;;5004543;28;20552;-81
2023/01/13 06:26:15;;;;;;;10.10;2.20;;;8.00;99.90;;;;;;5003329;28;20845;-81
2023/01/13 06:29:01;;;;;;;6.80;1.90;;;7.90;99.90;;;;;;5003932;28;20465;-82
2023/01/13 06:31:28;;;;;;;7.17;1.87;;;7.90;99.90;;;;;;5000916;28;20510;-82
2023/01/13 06:34:00;;;;;;;9.03;1.97;;;7.90;99.90;;;;;;5003880;28;20464;-81
2023/01/13 06:36:31;;;;;;;6.97;1.80;;;7.80;99.90;;;;;;5003709;28;20483;-82
2023/01/13 06:39:00;;;;;;;5.43;1.87;;;7.80;99.90;;;;;;5004064;28;20456;-83
2023/01/13 06:44:10;;;;;;;4.40;1.83;;;7.70;99.90;;;;;;5005285;28;20525;-83
2023/01/13 06:46:37;;;;;;;5.33;2.30;;;7.70;99.90;;;;;;5004114;28;20446;-82
2023/01/13 06:49:05;;;;;;;11.13;2.27;;;7.60;99.90;;;;;;5004324;28;20454;-83
2023/01/13 06:51:32;;;;;;;4.60;1.80;;;7.60;99.90;;;;;;5003747;28;20470;-83
2023/01/13 06:53:59;;;;;;;7.50;1.77;;;7.50;99.90;;;;;;5004510;28;20446;-84
2023/01/13 06:56:26;;;;;;;4.63;1.47;;;7.60;99.90;;;;;;5003876;28;20454;-82
2023/01/13 06:58:52;;;;;;;10.57;2.03;;;7.60;99.90;;;;;;5003668;28;20809;-83
2023/01/13 07:01:20;;;;;;;3.53;1.30;;;7.80;99.90;;;;;;5003430;28;20473;-81
2023/01/13 07:03:47;;;;;;;4.50;1.67;;;7.90;99.90;;;;;;5003744;28;20464;-83
2023/01/13 07:06:14;;;;;;;4.90;1.60;;;8.00;99.90;;;;;;5003304;28;20457;-82
2023/01/13 07:08:41;;;;;;;7.17;1.40;;;7.90;99.90;;;;;;5004461;28;20454;-80
2023/01/13 07:11:07;;;;;;;5.73;1.10;;;7.90;99.90;;;;;;5003154;28;20478;-81
2023/01/13 07:16:22;;;;;;;8.23;1.17;;;7.80;99.90;;;;;;5003140;28;20964;-82
2023/01/13 07:18:49;;;;;;;7.27;2.47;;;7.90;99.90;;;;;;5003598;28;20454;-85
2023/01/13 07:21:18;;;;;;;4.83;1.37;;;8.00;99.90;;;;;;5003689;28;21011;-81
2023/01/13 07:23:46;;;;;;;5.03;1.30;;;8.10;99.90;;;;;;5003115;28;20541;-82
2023/01/13 07:26:14;;;;;;;15.57;2.70;;;8.00;99.90;;;;;;5003335;28;20465;-81
2023/01/13 07:28:41;;;;;;;10.67;2.00;;;8.10;99.90;;;;;;5002604;28;20458;-82
2023/01/13 07:31:14;;;;;;;5.93;1.53;;;8.00;99.90;;;;;;5000846;28;20493;-82
2023/01/13 07:33:42;;;;;;;6.33;1.07;;;8.00;99.90;;;;;;5002770;28;20510;-82
2023/01/13 07:36:09;;;;;;;15.77;3.10;;;7.90;99.90;;;;;;5002081;28;20460;-81
2023/01/13 07:38:37;;;;;;;8.70;1.43;;;7.80;99.90;;;;;;4996688;28;20477;-82
2023/01/13 07:43:44;;;;;;;3.90;1.10;;;7.60;99.90;;;;;;4982219;28;20779;-81
2023/01/13 07:46:11;;;;;;;16.43;1.87;;;7.60;99.90;;;;;;4981715;28;20451;-81
2023/01/13 07:48:38;;;;;;;9.93;1.60;;;7.60;99.90;;;;;;4982789;28;20465;-81
2023/01/13 07:51:08;;;;;;;7.07;2.30;;;7.60;99.90;;;;;;4983701;28;20471;-81
2023/01/13 07:53:35;;;;;;;8.43;1.87;;;7.60;99.90;;;;;;4983018;28;20950;-82
2023/01/13 07:56:04;;;;;;;5.20;1.80;;;7.60;99.90;;;;;;4983444;28;20455;-83
2023/01/13 07:58:32;;;;;;;4.33;1.60;;;7.70;99.90;;;;;;4984554;28;20451;-83
2023/01/13 08:00:59;;;;;;;9.97;1.90;;;7.60;99.90;;;;;;4983421;28;20856;-84
2023/01/13 08:03:32;;;;;;;10.17;1.63;;;7.60;99.90;;;;;;4980886;28;20481;-82
2023/01/13 08:06:00;;;;;;;7.67;2.10;;;7.60;99.90;;;;;;4981526;28;20463;-81
2023/01/13 08:08:28;;;;;;;5.87;1.70;;;7.50;99.90;;;;;;4982361;28;20459;-81
2023/01/13 08:10:58;;;;;;;10.10;2.07;;;7.60;99.90;;;;;;4982258;28;20982;-82
2023/01/13 08:13:25;;;;;;;6.70;2.20;;;7.50;99.90;;;;;;4982166;28;20462;-81
2023/01/13 08:15:54;;;;;;;11.27;3.03;;;7.60;99.90;;;;;;4981920;28;20455;-81
2023/01/13 08:18:22;;;;;;;9.13;2.17;;;7.60;99.90;;;;;;4982253;28;20455;-82
2023/01/13 08:20:51;;;;;;;7.70;2.53;;;7.60;99.90;;;;;;4982207;28;20481;-81
2023/01/13 08:23:18;;;;;;;9.03;2.73;;;7.70;99.90;;;;;;4981485;28;21028;-82
2023/01/13 08:25:47;;;;;;;10.57;2.13;;;7.80;99.90;;;;;;4981795;28;20451;-82
2023/01/13 08:28:14;;;;;;;4.67;1.40;;;8.00;99.90;;;;;;4981347;28;20485;-81
2023/01/13 08:30:41;;;;;;;10.10;2.03;;;8.20;99.90;;;;;;4981617;28;20489;-82
2023/01/13 08:33:10;;;;;;;8.63;2.43;;;8.30;99.90;;;;;;4982227;28;20461;-82
2023/01/13 08:35:37;;;;;;;14.23;2.27;;;8.40;99.90;;;;;;4982072;28;20454;-82
2023/01/13 08:38:05;;;;;;;6.93;1.20;;;8.60;99.90;;;;;;4981968;28;20458;-82
2023/01/13 08:40:32;;;;;;;12.07;2.10;;;8.60;99.90;;;;;;4981769;28;20474;-82
2023/01/13 08:43:01;;;;;;;9.07;1.60;;;8.70;99.90;;;;;;4981536;28;20489;-85
2023/01/13 08:45:27;;;;;;;10.90;2.50;;;8.60;99.90;;;;;;4981892;28;20462;-82
2023/01/13 08:47:54;;;;;;;12.43;2.13;;;8.70;99.90;;;;;;4981890;28;20852;-82
2023/01/13 08:50:21;;;;;;;8.60;1.83;;;8.80;99.90;;;;;;4981928;28;20474;-84
2023/01/13 08:52:48;;;;;;;12.97;2.30;;;8.80;99.90;;;;;;4981801;28;20953;-81
2023/01/13 08:55:14;;;;;;;15.20;2.50;;;8.80;99.90;;;;;;4981821;28;20463;-82
2023/01/13 08:57:41;;;;;;;17.60;3.33;;;8.80;99.90;;;;;;4982562;28;20493;-82
2023/01/13 09:00:11;;;;;;;9.10;2.00;;;8.80;99.90;;;;;;4981631;28;20482;-82
2023/01/13 09:02:38;;;;;;;8.70;1.80;;;8.70;99.90;;;;;;4981873;28;20526;-81
2023/01/13 09:05:06;;;;;;;7.23;1.53;;;8.70;99.90;;;;;;4982525;28;20463;-82
2023/01/13 09:07:33;;;;;;;11.20;2.23;;;8.70;99.90;;;;;;4981472;28;20459;-81
2023/01/13 09:10:00;;;;;;;6.83;2.07;;;8.80;99.90;;;;;;4982357;28;20485;-81
2023/01/13 09:15:17;;;;;;;9.07;2.00;;;8.80;99.90;;;;;;4981699;28;20462;-85
2023/01/13 09:17:44;;;;;;;17.03;2.87;;;8.80;99.90;;;;;;4982202;28;20450;-82
2023/01/13 09:20:12;;;;;;;10.47;2.60;;;8.80;99.90;;;;;;4981679;28;20479;-83
2023/01/13 09:22:39;;;;;;;9.03;2.23;;;8.90;99.90;;;;;;4981803;28;20478;-83
2023/01/13 09:25:06;;;;;;;17.20;2.90;;;8.90;99.90;;;;;;4982291;28;20455;-81
2023/01/13 09:27:33;;;;;;;13.50;2.13;;;9.00;99.90;;;;;;4981302;28;20447;-82
2023/01/13 09:30:00;;;;;;;10.20;2.73;;;9.00;99.90;;;;;;4982078;28;20482;-82
2023/01/13 09:32:28;;;;;;;7.10;1.73;;;9.10;99.90;;;;;;4983019;28;20455;-82
2023/01/13 09:35:00;;;;;;;9.87;2.07;;;9.20;99.90;;;;;;4982173;28;20465;-83
2023/01/13 09:37:28;;;;;;;12.77;1.90;;;9.40;99.90;;;;;;4982244;28;20447;-82
2023/01/13 09:39:55;;;;;;;18.73;3.23;;;9.40;99.90;;;;;;4981729;28;20466;-82
2023/01/13 09:45:19;;;;;;;16.80;2.80;;;9.20;99.90;;;;;;4982483;28;20489;-82
2023/01/13 09:47:54;;;;;;;16.10;4.33;;;9.10;99.90;;;;;;4982872;28;20490;-82
2023/01/13 09:50:32;;;;;;;14.80;2.80;;;9.10;99.90;;;;;;4998736;28;20523;-81
2023/01/13 09:53:00;;;;;;;11.60;3.63;;;9.20;99.90;;;;;;5003775;28;20512;-82
2023/01/13 09:55:32;;;;;;;11.77;2.57;;;9.30;99.90;;;;;;5005448;28;20491;-81
2023/01/13 09:58:00;;;;;;;16.07;3.20;;;9.50;99.90;;;;;;5006700;28;20458;-82
2023/01/13 10:00:35;;;;;;;15.93;3.30;;;9.50;99.90;;;;;;5006649;28;20474;-82
2023/01/13 10:03:19;;;;;;;13.63;2.23;;;9.50;99.90;;;;;;5005820;28;20480;-82
2023/01/13 10:05:55;;;;;;;7.63;2.53;;;9.50;99.90;;;;;;4985935;28;20455;-82
2023/01/13 10:08:24;;;;;;;15.30;2.10;;;9.50;99.90;;;;;;4986978;28;20455;-82
2023/01/13 10:10:54;;;;;;;16.67;2.30;;;9.60;99.90;;;;;;4986168;28;20474;-82
2023/01/13 10:13:23;;;;;;;11.83;2.13;;;9.70;99.90;;;;;;4985778;28;20510;-82
2023/01/13 10:16:15;;;;;;;15.73;2.30;;;9.80;99.90;;;;;;4986088;28;20461;-82
2023/01/13 10:19:00;;;;;;;18.20;2.80;;;9.90;99.90;;;;;;4986187;28;20454;-84
2023/01/13 10:21:50;;;;;;;5.63;1.90;;;9.90;99.90;;;;;;4986741;28;20853;-85
2023/01/13 10:24:26;;;;;;;6.80;2.10;;;9.80;99.90;;;;;;4986121;28;20479;-83
2023/01/13 10:26:57;;;;;;;12.77;2.83;;;9.90;99.90;;;;;;4985531;28;20458;-85
2023/01/13 10:29:25;;;;;;;10.23;2.10;;;10.00;99.90;;;;;;4986422;28;20966;-82
2023/01/13 10:31:52;;;;;;;11.40;3.30;;;10.00;99.90;;;;;;4986086;28;20514;-82
2023/01/13 10:34:21;;;;;;;11.03;2.67;;;10.00;99.90;;;;;;4985592;28;20984;-85
2023/01/13 10:36:59;;;;;;;9.40;2.00;;;10.00;99.90;;;;;;4985677;28;20459;-83
2023/01/13 10:39:26;;;;;;;9.60;2.10;;;9.90;99.90;;;;;;4986103;28;20458;-84
2023/01/13 10:42:02;;;;;;;15.23;2.40;;;9.90;99.90;;;;;;4986421;28;20506;-82
2023/01/13 10:44:29;;;;;;;8.90;2.83;;;9.90;99.90;;;;;;4986375;28;20541;-82
2023/01/13 10:46:57;;;;;;;11.67;2.83;;;9.90;99.90;;;;;;4985591;28;20455;-82
2023/01/13 10:49:35;;;;;;;12.23;2.70;;;10.00;99.90;;;;;;4985912;28;20517;-82
2023/01/13 10:52:02;;;;;;;14.00;2.20;;;9.90;99.90;;;;;;4985412;28;20502;-82
2023/01/13 10:54:29;;;;;;;13.00;3.17;;;9.90;99.90;;;;;;4985906;28;20459;-82
2023/01/13 10:57:24;;;;;;;7.63;2.73;;;9.90;99.90;;;;;;4985291;28;20451;-82
2023/01/13 10:59:52;;;;;;;10.87;2.50;;;9.80;99.90;;;;;;4984001;28;20463;-83
2023/01/13 11:02:25;;;;;;;8.70;3.07;;;9.80;99.90;;;;;;4985617;28;20462;-83
2023/01/13 11:05:21;;;;;;;14.63;3.20;;;9.70;99.90;;;;;;4983826;28;20451;-82
2023/01/13 11:07:51;;;;;;;12.43;2.63;;;9.90;99.90;;;;;;4985529;28;20968;-82
2023/01/13 11:10:26;;;;;;;12.30;4.20;;;10.00;99.90;;;;;;4985804;28;20505;-82
2023/01/13 11:13:07;;;;;;;10.37;2.37;;;10.10;99.90;;;;;;4985555;28;20516;-82
2023/01/13 11:15:41;;;;;;;16.13;4.40;;;10.20;99.90;;;;;;4985567;28;20498;-83
2023/01/13 11:18:17;;;;;;;13.73;2.93;;;10.10;99.90;;;;;;4985745;28;20470;-85
2023/01/13 11:20:49;;;;;;;35.87;3.77;;;10.10;99.90;;;;;;4984978;28;20870;-83
2023/01/13 11:23:21;;;;;;;4.53;1.50;;;10.10;99.90;;;;;;4983998;28;20955;-85
2023/01/13 11:25:53;;;;;;;12.83;4.07;;;10.20;99.90;;;;;;4985314;28;20457;-84
2023/01/13 11:28:35;;;;;;;15.63;2.90;;;10.20;99.90;;;;;;4984843;28;20458;-83
2023/01/13 11:31:08;;;;;;;17.77;3.40;;;10.30;99.90;;;;;;4984225;28;20581;-85
2023/01/13 11:33:41;;;;;;;11.97;2.80;;;10.20;99.90;;;;;;4984996;28;20485;-83
2023/01/13 11:36:15;;;;;;;14.53;2.10;;;10.20;99.90;;;;;;4984642;28;20454;-82
2023/01/13 11:38:47;;;;;;;13.00;2.43;;;10.20;99.90;;;;;;4985372;28;20850;-85
2023/01/13 11:41:24;;;;;;;12.73;1.87;;;10.20;99.90;;;;;;4984795;28;20475;-82
2023/01/13 11:43:55;;;;;;;8.80;1.90;;;10.10;99.90;;;;;;4985058;28;20489;-83
2023/01/13 11:46:25;;;;;;;19.70;2.73;;;10.00;99.90;;;;;;4985119;28;20466;-82
2023/01/13 11:48:55;;;;;;;7.00;1.87;;;10.00;99.90;;;;;;4984390;28;20451;-82
2023/01/13 11:51:33;;;;;;;7.00;2.60;;;10.10;99.90;;;;;;4985069;28;20855;-83
2023/01/13 11:54:23;;;;;;;13.13;2.50;;;10.20;99.90;;;;;;4984090;28;20457;-83
2023/01/13 11:57:11;;;;;;;8.67;2.73;;;10.30;99.90;;;;;;4983237;28;20290;-86
2023/01/13 11:59:57;;;;;;;11.90;2.87;;;10.30;99.90;;;;;;4984255;28;20514;-80
2023/01/13 12:02:40;;;;;;;14.03;2.70;;;10.10;99.90;;;;;;4983918;28;20973;-82
2023/01/13 12:05:14;;;;;;;7.80;1.73;;;10.10;99.90;;;;;;4983257;28;20446;-82
2023/01/13 12:07:49;;;;;;;14.53;2.30;;;10.00;99.90;;;;;;4984613;28;20991;-82
2023/01/13 12:10:24;;;;;;;9.70;2.00;;;10.10;99.90;;;;;;4985414;28;20466;-83
2023/01/13 12:12:58;;;;;;;12.00;2.47;;;10.30;99.90;;;;;;4983911;28;20546;-82
2023/01/13 12:15:39;;;;;;;7.63;1.93;;;10.30;99.90;;;;;;4983801;28;20530;-82
2023/01/13 12:18:18;;;;;;;9.47;2.00;;;10.20;99.90;;;;;;4983898;28;20450;-83
2023/01/13 12:20:58;;;;;;;15.90;2.10;;;10.10;99.90;;;;;;4983940;28;20482;-83
2023/01/13 12:23:33;;;;;;;9.10;2.20;;;9.90;99.90;;;;;;4983066;28;20506;-82
2023/01/13 12:26:06;;;;;;;10.67;1.70;;;9.90;99.90;;;;;;4983484;28;20456;-83
2023/01/13 12:28:41;;;;;;;13.43;2.50;;;9.90;99.90;;;;;;4984583;28;20451;-82
2023/01/13 12:31:09;;;;;;;9.37;2.30;;;10.10;99.90;;;;;;4983786;28;20485;-83
2023/01/13 12:33:51;;;;;;;6.73;1.77;;;10.40;99.90;;;;;;4984237;28;20967;-85
2023/01/13 12:36:26;;;;;;;6.73;1.73;;;10.40;99.90;;;;;;4983344;28;20451;-84
2023/01/13 12:38:57;;;;;;;10.10;2.13;;;10.30;99.90;;;;;;4983179;28;20465;-83
2023/01/13 12:41:35;;;;;;;14.30;3.53;;;9.90;99.90;;;;;;4983850;28;20479;-83
2023/01/13 12:44:17;;;;;;;11.00;2.17;;;9.50;99.90;;;;;;4983287;28;20510;-82
2023/01/13 12:46:56;;;;;;;10.70;1.90;;;9.40;99.90;;;;;;4982900;28;21024;-85
2023/01/13 12:49:28;;;;;;;14.67;2.37;;;9.30;99.90;;;;;;4983140;28;20478;-83
2023/01/13 12:52:12;;;;;;;9.10;2.13;;;9.30;99.90;;;;;;4983298;28;20489;-84
2023/01/13 12:55:16;;;;;;;6.57;1.80;;;9.00;99.90;;;;;;4983486;28;20487;-82
2023/01/13 12:58:17;;;;;;;9.03;2.00;;;9.10;99.90;;;;;;4982950;28;20478;-83
2023/01/13 13:00:59;;;;;;;12.07;3.07;;;8.90;99.90;;;;;;4980403;28;20467;-83
2023/01/13 13:03:32;;;;;;;8.77;2.57;;;9.00;99.90;;;;;;4981222;28;20489;-82
2023/01/13 13:06:03;;;;;;;10.47;2.00;;;9.00;99.90;;;;;;4981861;28;20988;-85
2023/01/13 13:08:50;;;;;;;9.00;1.90;;;9.00;99.90;;;;;;4982894;28;20465;-83
2023/01/13 13:14:13;;;;;;;5.23;1.30;;;9.10;99.90;;;;;;4982759;28;20462;-82
2023/01/13 13:16:59;;;;;;;11.93;2.17;;;9.10;99.90;;;;;;4982722;28;20451;-83
2023/01/13 13:19:43;;;;;;;12.20;2.60;;;9.10;99.90;;;;;;4982770;28;20458;-83
2023/01/13 13:22:35;;;;;;;9.07;2.27;;;9.20;99.90;;;;;;4982216;28;20447;-83
2023/01/13 13:25:29;;;;;;;11.40;2.87;;;9.20;99.90;;;;;;4983254;28;21035;-83
2023/01/13 13:28:16;;;;;;;13.00;2.40;;;9.20;99.90;;;;;;4983628;28;20455;-83
2023/01/13 13:30:52;;;;;;;13.70;2.97;;;9.30;99.90;;;;;;4986916;28;20493;-82
2023/01/13 13:33:35;;;;;;;9.50;2.00;;;9.40;99.90;;;;;;4986503;28;20459;-83
2023/01/13 13:36:12;;;;;;;7.30;1.47;;;9.50;99.90;;;;;;4986436;28;20466;-84
2023/01/13 13:47:16;;;;;;;6.73;2.60;;;8.90;99.90;;;;;;4984898;28;20477;-81
2023/01/13 13:49:47;;;;;;;6.20;2.17;;;8.80;99.90;;;;;;4984573;28;20453;-82
2023/01/13 13:52:18;;;;;;;11.73;1.97;;;8.70;99.90;;;;;;4984730;28;20458;-81
2023/01/13 13:54:48;;;;;;;9.17;2.20;;;8.50;99.90;;;;;;4984742;28;20455;-83
2023/01/13 13:57:19;;;;;;;14.00;3.97;;;8.70;99.90;;;;;;4983610;28;20466;-81